Terminal Aerodrome Forecast
Issued by NWS Twin Cities, MN

Home | Current Version | Previous Version | Text Only | Print | Product List | Glossary On
Versions: 1 2 3 4 5 6 7 8 9 10 11 12 13 14 15 16 17 18 19 20 21 22 23 24 25 26 27 28 29 30 31 32
000
FTUS43 KMPX 041120
TAFMSP
TAF
KMSP 041120Z 0412/0518 11008KT 6SM BR SCT006
      TEMPO 0412/0414 BKN006
     FM041400 13010G16KT P6SM SCT010 BKN120
     FM042200 15011G16KT P6SM VCSH BKN120
     FM050600 15007KT 6SM BR OVC120=

USA.gov is the U.S. government's official web portal to all federal, state and local government web resources and services.